sensor_id;sensor_type;location;lat;lon;timestamp;pressure;altitude;pressure_sealevel;temperature;humidity
33795;BME280;51430;52.242;21.118;2023-02-23T00:00:54;100861.09;;;0.37;60.69
33795;BME280;51430;52.242;21.118;2023-02-23T00:03:39;100860.19;;;0.31;61.02
33795;BME280;51430;52.242;21.118;2023-02-23T00:06:27;100861.08;;;0.36;60.85
33795;BME280;51430;52.242;21.118;2023-02-23T00:09:12;100860.80;;;0.47;61.06
33795;BME280;51430;52.242;21.118;2023-02-23T00:12:06;100855.96;;;0.49;60.75
33795;BME280;51430;52.242;21.118;2023-02-23T00:14:52;100852.80;;;0.57;61.06
33795;BME280;51430;52.242;21.118;2023-02-23T00:17:37;100851.41;;;0.58;60.88
33795;BME280;51430;52.242;21.118;2023-02-23T00:20:25;100847.73;;;0.48;60.94
33795;BME280;51430;52.242;21.118;2023-02-23T00:23:11;100846.88;;;0.48;61.32
33795;BME280;51430;52.242;21.118;2023-02-23T00:25:57;100844.94;;;0.50;61.59
33795;BME280;51430;52.242;21.118;2023-02-23T00:28:43;100842.27;;;0.54;61.51
33795;BME280;51430;52.242;21.118;2023-02-23T00:31:28;100841.80;;;0.40;61.35
33795;BME280;51430;52.242;21.118;2023-02-23T00:34:16;100847.74;;;0.35;61.70
33795;BME280;51430;52.242;21.118;2023-02-23T00:37:04;100843.03;;;0.38;61.71
33795;BME280;51430;52.242;21.118;2023-02-23T00:39:54;100843.25;;;0.43;61.93
33795;BME280;51430;52.242;21.118;2023-02-23T00:42:43;100843.73;;;0.38;61.83
33795;BME280;51430;52.242;21.118;2023-02-23T00:45:29;100841.16;;;0.44;61.83
33795;BME280;51430;52.242;21.118;2023-02-23T00:48:14;100841.88;;;0.43;62.14
33795;BME280;51430;52.242;21.118;2023-02-23T00:51:01;100836.30;;;0.40;62.25
33795;BME280;51430;52.242;21.118;2023-02-23T00:53:47;100831.83;;;0.41;62.70
33795;BME280;51430;52.242;21.118;2023-02-23T00:56:32;100828.64;;;0.50;62.83
33795;BME280;51430;52.242;21.118;2023-02-23T00:59:18;100830.36;;;0.56;63.17
33795;BME280;51430;52.242;21.118;2023-02-23T01:02:03;100831.77;;;0.61;63.12
33795;BME280;51430;52.242;21.118;2023-02-23T01:04:48;100828.20;;;0.66;62.86
33795;BME280;51430;52.242;21.118;2023-02-23T01:07:34;100825.22;;;0.68;62.82
33795;BME280;51430;52.242;21.118;2023-02-23T01:10:19;100823.80;;;0.70;63.25
33795;BME280;51430;52.242;21.118;2023-02-23T01:13:05;100821.06;;;0.69;63.19
33795;BME280;51430;52.242;21.118;2023-02-23T01:15:50;100824.44;;;0.72;63.10
33795;BME280;51430;52.242;21.118;2023-02-23T01:18:38;100822.54;;;0.72;63.12
33795;BME280;51430;52.242;21.118;2023-02-23T01:21:30;100817.53;;;0.67;63.16
33795;BME280;51430;52.242;21.118;2023-02-23T01:24:15;100817.59;;;0.60;63.52
33795;BME280;51430;52.242;21.118;2023-02-23T01:27:01;100818.38;;;0.56;63.76
33795;BME280;51430;52.242;21.118;2023-02-23T01:29:47;100812.95;;;0.60;63.92
33795;BME280;51430;52.242;21.118;2023-02-23T01:32:36;100809.16;;;0.54;63.95
33795;BME280;51430;52.242;21.118;2023-02-23T01:35:22;100812.00;;;0.57;64.01
33795;BME280;51430;52.242;21.118;2023-02-23T01:38:07;100811.59;;;0.59;64.25
33795;BME280;51430;52.242;21.118;2023-02-23T01:40:53;100808.34;;;0.65;64.23
33795;BME280;51430;52.242;21.118;2023-02-23T01:46:44;100802.90;;;0.51;64.63
33795;BME280;51430;52.242;21.118;2023-02-23T01:49:31;100798.08;;;0.58;64.92
33795;BME280;51430;52.242;21.118;2023-02-23T01:52:18;100791.98;;;0.61;64.76
33795;BME280;51430;52.242;21.118;2023-02-23T01:55:04;100789.83;;;0.64;65.00
33795;BME280;51430;52.242;21.118;2023-02-23T01:57:53;100793.04;;;0.60;64.97
33795;BME280;51430;52.242;21.118;2023-02-23T02:00:42;100786.73;;;0.59;65.21
33795;BME280;51430;52.242;21.118;2023-02-23T02:03:55;100788.23;;;0.61;65.31
33795;BME280;51430;52.242;21.118;2023-02-23T02:06:39;100784.20;;;0.57;65.80
33795;BME280;51430;52.242;21.118;2023-02-23T02:09:25;100785.26;;;0.57;65.88
33795;BME280;51430;52.242;21.118;2023-02-23T02:12:12;100784.28;;;0.49;66.00
33795;BME280;51430;52.242;21.118;2023-02-23T02:14:59;100785.92;;;0.45;66.56
33795;BME280;51430;52.242;21.118;2023-02-23T02:21:23;100785.43;;;0.26;67.44
33795;BME280;51430;52.242;21.118;2023-02-23T02:43:10;100769.05;;;-0.04;69.65
33795;BME280;51430;52.242;21.118;2023-02-23T02:49:22;100769.47;;;-0.13;70.15
33795;BME280;51430;52.242;21.118;2023-02-23T02:52:18;100771.00;;;-0.19;70.77
33795;BME280;51430;52.242;21.118;2023-02-23T02:55:17;100774.35;;;-0.10;70.83
33795;BME280;51430;52.242;21.118;2023-02-23T02:58:08;100772.56;;;-0.13;71.11
33795;BME280;51430;52.242;21.118;2023-02-23T03:00:55;100772.16;;;-0.05;71.21
33795;BME280;51430;52.242;21.118;2023-02-23T03:04:20;100772.46;;;-0.03;71.49
33795;BME280;51430;52.242;21.118;2023-02-23T03:11:01;100777.40;;;-0.09;72.03
33795;BME280;51430;52.242;21.118;2023-02-23T03:17:41;100773.69;;;-0.24;72.94
33795;BME280;51430;52.242;21.118;2023-02-23T03:20:49;100772.50;;;-0.24;73.06
33795;BME280;51430;52.242;21.118;2023-02-23T03:24:13;100774.63;;;-0.34;73.72
33795;BME280;51430;52.242;21.118;2023-02-23T03:34:19;100770.58;;;-0.50;75.57
33795;BME280;51430;52.242;21.118;2023-02-23T03:37:55;100770.20;;;-0.56;75.71
33795;BME280;51430;52.242;21.118;2023-02-23T03:40:57;100771.54;;;-0.62;76.18
33795;BME280;51430;52.242;21.118;2023-02-23T03:44:08;100772.09;;;-0.56;76.24
33795;BME280;51430;52.242;21.118;2023-02-23T03:47:14;100778.05;;;-0.55;76.21
33795;BME280;51430;52.242;21.118;2023-02-23T03:50:28;100778.23;;;-0.63;76.47
33795;BME280;51430;52.242;21.118;2023-02-23T03:53:42;100777.92;;;-0.64;76.83
33795;BME280;51430;52.242;21.118;2023-02-23T03:56:50;100776.55;;;-0.64;77.27
33795;BME280;51430;52.242;21.118;2023-02-23T04:00:00;100780.10;;;-0.62;77.38
33795;BME280;51430;52.242;21.118;2023-02-23T04:03:07;100780.55;;;-0.53;77.28
33795;BME280;51430;52.242;21.118;2023-02-23T04:06:13;100782.55;;;-0.44;77.01
33795;BME280;51430;52.242;21.118;2023-02-23T04:09:19;100785.08;;;-0.35;77.05
33795;BME280;51430;52.242;21.118;2023-02-23T04:15:39;100785.59;;;-0.14;76.62
33795;BME280;51430;52.242;21.118;2023-02-23T04:18:28;100788.39;;;-0.03;76.46
33795;BME280;51430;52.242;21.118;2023-02-23T04:21:14;100782.91;;;0.04;76.29
33795;BME280;51430;52.242;21.118;2023-02-23T04:23:59;100785.58;;;0.07;76.16
33795;BME280;51430;52.242;21.118;2023-02-23T04:26:45;100785.60;;;0.13;76.01
33795;BME280;51430;52.242;21.118;2023-02-23T04:29:30;100784.67;;;0.15;75.79
33795;BME280;51430;52.242;21.118;2023-02-23T04:32:18;100780.98;;;0.18;75.90
33795;BME280;51430;52.242;21.118;2023-02-23T04:35:05;100774.25;;;0.07;76.29
33795;BME280;51430;52.242;21.118;2023-02-23T04:37:50;100772.14;;;0.02;76.62
33795;BME280;51430;52.242;21.118;2023-02-23T04:40:36;100776.70;;;0.05;76.76
33795;BME280;51430;52.242;21.118;2023-02-23T04:43:21;100772.55;;;-0.13;77.24
33795;BME280;51430;52.242;21.118;2023-02-23T04:46:06;100773.56;;;0.01;77.60
33795;BME280;51430;52.242;21.118;2023-02-23T04:48:52;100772.45;;;0.11;77.23
33795;BME280;51430;52.242;21.118;2023-02-23T04:51:37;100772.44;;;0.17;77.07
33795;BME280;51430;52.242;21.118;2023-02-23T04:54:22;100772.38;;;-0.00;77.35
33795;BME280;51430;52.242;21.118;2023-02-23T04:57:08;100773.30;;;-0.02;77.63
33795;BME280;51430;52.242;21.118;2023-02-23T04:59:54;100771.33;;;-0.19;78.08
33795;BME280;51430;52.242;21.118;2023-02-23T05:02:39;100771.41;;;-0.09;78.39
33795;BME280;51430;52.242;21.118;2023-02-23T05:05:25;100768.64;;;-0.07;78.37
33795;BME280;51430;52.242;21.118;2023-02-23T05:08:10;100771.45;;;0.04;78.08
33795;BME280;51430;52.242;21.118;2023-02-23T05:10:55;100768.82;;;0.12;77.77
33795;BME280;51430;52.242;21.118;2023-02-23T05:13:40;100772.72;;;0.20;77.53
33795;BME280;51430;52.242;21.118;2023-02-23T05:16:26;100771.67;;;0.20;77.38
33795;BME280;51430;52.242;21.118;2023-02-23T05:19:12;100766.54;;;0.20;77.57
33795;BME280;51430;52.242;21.118;2023-02-23T05:21:57;100768.65;;;0.25;77.56
33795;BME280;51430;52.242;21.118;2023-02-23T05:24:42;100764.18;;;0.19;77.56
33795;BME280;51430;52.242;21.118;2023-02-23T05:27:28;100763.13;;;0.26;77.48
33795;BME280;51430;52.242;21.118;2023-02-23T05:30:13;100765.16;;;0.21;77.52
33795;BME280;51430;52.242;21.118;2023-02-23T05:32:59;100766.59;;;0.18;77.84
33795;BME280;51430;52.242;21.118;2023-02-23T05:35:45;100763.94;;;0.21;78.05
33795;BME280;51430;52.242;21.118;2023-02-23T05:38:30;100762.92;;;0.27;77.83
33795;BME280;51430;52.242;21.118;2023-02-23T05:41:18;100763.34;;;0.18;77.94
33795;BME280;51430;52.242;21.118;2023-02-23T05:44:04;100764.95;;;0.16;78.41
33795;BME280;51430;52.242;21.118;2023-02-23T05:46:49;100766.88;;;0.14;78.47
33795;BME280;51430;52.242;21.118;2023-02-23T05:49:34;100765.20;;;0.12;78.76
33795;BME280;51430;52.242;21.118;2023-02-23T05:52:20;100773.23;;;0.26;78.43
33795;BME280;51430;52.242;21.118;2023-02-23T05:55:06;100770.86;;;0.13;78.84
33795;BME280;51430;52.242;21.118;2023-02-23T05:57:51;100774.80;;;0.32;78.31
33795;BME280;51430;52.242;21.118;2023-02-23T06:00:36;100775.07;;;0.34;78.00
33795;BME280;51430;52.242;21.118;2023-02-23T06:03:22;100777.63;;;0.41;77.41
33795;BME280;51430;52.242;21.118;2023-02-23T06:06:07;100775.24;;;0.53;77.19
33795;BME280;51430;52.242;21.118;2023-02-23T06:08:53;100772.23;;;0.50;76.80
33795;BME280;51430;52.242;21.118;2023-02-23T06:11:38;100773.45;;;0.50;76.46
33795;BME280;51430;52.242;21.118;2023-02-23T06:14:23;100771.88;;;0.44;76.41
33795;BME280;51430;52.242;21.118;2023-02-23T06:17:09;100769.80;;;0.39;76.57
33795;BME280;51430;52.242;21.118;2023-02-23T06:19:55;100774.19;;;0.48;76.36
33795;BME280;51430;52.242;21.118;2023-02-23T06:22:40;100776.02;;;0.55;75.56
33795;BME280;51430;52.242;21.118;2023-02-23T06:25:26;100779.73;;;0.58;74.94
33795;BME280;51430;52.242;21.118;2023-02-23T06:28:11;100786.94;;;0.58;75.18
33795;BME280;51430;52.242;21.118;2023-02-23T06:30:57;100781.08;;;0.53;75.07
33795;BME280;51430;52.242;21.118;2023-02-23T06:33:42;100782.20;;;0.62;74.77
33795;BME280;51430;52.242;21.118;2023-02-23T06:36:28;100787.76;;;0.47;75.10
33795;BME280;51430;52.242;21.118;2023-02-23T06:39:13;100787.71;;;0.54;75.06
33795;BME280;51430;52.242;21.118;2023-02-23T06:41:58;100786.55;;;0.53;74.98
33795;BME280;51430;52.242;21.118;2023-02-23T06:44:44;100786.95;;;0.81;74.52
33795;BME280;51430;52.242;21.118;2023-02-23T06:47:29;100786.21;;;0.82;73.85
33795;BME280;51430;52.242;21.118;2023-02-23T06:50:15;100784.48;;;0.89;73.81
33795;BME280;51430;52.242;21.118;2023-02-23T06:53:00;100786.14;;;0.85;73.32
33795;BME280;51430;52.242;21.118;2023-02-23T06:55:45;100784.73;;;0.86;73.29
33795;BME280;51430;52.242;21.118;2023-02-23T06:58:30;100788.63;;;0.82;73.68
33795;BME280;51430;52.242;21.118;2023-02-23T07:01:16;100791.73;;;0.93;73.00
33795;BME280;51430;52.242;21.118;2023-02-23T07:04:05;100789.73;;;0.85;73.12
33795;BME280;51430;52.242;21.118;2023-02-23T07:06:51;100788.13;;;0.93;73.03
33795;BME280;51430;52.242;21.118;2023-02-23T07:09:38;100791.38;;;1.21;72.46
33795;BME280;51430;52.242;21.118;2023-02-23T07:12:24;100783.73;;;1.19;71.88
33795;BME280;51430;52.242;21.118;2023-02-23T07:15:10;100786.54;;;1.50;71.55
33795;BME280;51430;52.242;21.118;2023-02-23T07:17:55;100778.77;;;1.72;70.05
33795;BME280;51430;52.242;21.118;2023-02-23T07:20:41;100782.38;;;1.77;69.59
33795;BME280;51430;52.242;21.118;2023-02-23T07:23:26;100783.95;;;1.82;69.28
33795;BME280;51430;52.242;21.118;2023-02-23T07:26:12;100781.92;;;1.70;69.64
33795;BME280;51430;52.242;21.118;2023-02-23T07:29:00;100775.04;;;1.65;69.86
33795;BME280;51430;52.242;21.118;2023-02-23T07:31:45;100777.67;;;1.63;69.76
33795;BME280;51430;52.242;21.118;2023-02-23T07:34:31;100777.14;;;1.54;69.78
33795;BME280;51430;52.242;21.118;2023-02-23T07:37:16;100776.73;;;1.55;70.27
33795;BME280;51430;52.242;21.118;2023-02-23T07:40:01;100767.78;;;1.61;69.90
33795;BME280;51430;52.242;21.118;2023-02-23T07:42:47;100775.80;;;1.89;69.42
33795;BME280;51430;52.242;21.118;2023-02-23T07:45:32;100774.56;;;2.15;68.52
33795;BME280;51430;52.242;21.118;2023-02-23T07:48:18;100774.68;;;2.26;67.81
33795;BME280;51430;52.242;21.118;2023-02-23T07:51:08;100769.08;;;2.10;68.08
33795;BME280;51430;52.242;21.118;2023-02-23T07:53:56;100767.98;;;2.12;68.05
33795;BME280;51430;52.242;21.118;2023-02-23T07:56:41;100762.23;;;2.18;67.99
33795;BME280;51430;52.242;21.118;2023-02-23T07:59:26;100757.83;;;2.41;67.37
33795;BME280;51430;52.242;21.118;2023-02-23T08:02:12;100755.73;;;2.69;66.60
33795;BME280;51430;52.242;21.118;2023-02-23T08:04:58;100749.89;;;2.37;66.69
33795;BME280;51430;52.242;21.118;2023-02-23T08:07:43;100746.11;;;2.46;66.90
33795;BME280;51430;52.242;21.118;2023-02-23T08:10:28;100739.61;;;2.63;66.17
33795;BME280;51430;52.242;21.118;2023-02-23T08:13:15;100738.23;;;2.68;66.09
33795;BME280;51430;52.242;21.118;2023-02-23T08:16:01;100740.27;;;3.09;65.43
33795;BME280;51430;52.242;21.118;2023-02-23T08:18:47;100737.06;;;3.41;63.51
33795;BME280;51430;52.242;21.118;2023-02-23T08:21:32;100737.16;;;3.09;64.17
33795;BME280;51430;52.242;21.118;2023-02-23T08:24:17;100738.82;;;3.06;64.32
33795;BME280;51430;52.242;21.118;2023-02-23T08:27:03;100733.95;;;2.76;64.69
33795;BME280;51430;52.242;21.118;2023-02-23T08:29:48;100734.04;;;2.65;65.48
33795;BME280;51430;52.242;21.118;2023-02-23T08:32:36;100728.86;;;2.92;64.99
33795;BME280;51430;52.242;21.118;2023-02-23T08:35:22;100726.48;;;3.35;63.80
33795;BME280;51430;52.242;21.118;2023-02-23T08:38:07;100717.36;;;3.63;63.15
33795;BME280;51430;52.242;21.118;2023-02-23T08:40:52;100721.39;;;3.82;62.41
33795;BME280;51430;52.242;21.118;2023-02-23T08:43:39;100714.55;;;3.93;61.92
33795;BME280;51430;52.242;21.118;2023-02-23T08:46:24;100717.38;;;3.79;62.17
33795;BME280;51430;52.242;21.118;2023-02-23T08:49:09;100716.34;;;4.31;61.27
33795;BME280;51430;52.242;21.118;2023-02-23T08:51:55;100712.94;;;4.41;60.11
33795;BME280;51430;52.242;21.118;2023-02-23T08:54:40;100711.13;;;4.32;60.75
33795;BME280;51430;52.242;21.118;2023-02-23T08:57:26;100708.86;;;4.88;58.78
33795;BME280;51430;52.242;21.118;2023-02-23T09:00:11;100711.50;;;5.23;58.13
33795;BME280;51430;52.242;21.118;2023-02-23T09:03:00;100706.91;;;5.21;57.92
33795;BME280;51430;52.242;21.118;2023-02-23T09:05:46;100703.44;;;5.53;57.63
33795;BME280;51430;52.242;21.118;2023-02-23T09:08:32;100699.00;;;5.76;57.03
33795;BME280;51430;52.242;21.118;2023-02-23T09:11:17;100702.92;;;5.32;57.13
33795;BME280;51430;52.242;21.118;2023-02-23T09:14:03;100704.23;;;4.98;58.35
33795;BME280;51430;52.242;21.118;2023-02-23T09:16:49;100700.97;;;4.73;59.12
33795;BME280;51430;52.242;21.118;2023-02-23T09:19:34;100699.44;;;5.01;58.95
33795;BME280;51430;52.242;21.118;2023-02-23T09:22:19;100695.13;;;5.29;58.92
33795;BME280;51430;52.242;21.118;2023-02-23T09:25:06;100692.06;;;5.56;57.76
33795;BME280;51430;52.242;21.118;2023-02-23T09:27:54;100684.13;;;5.76;56.80
33795;BME280;51430;52.242;21.118;2023-02-23T09:30:42;100686.98;;;5.65;57.21
33795;BME280;51430;52.242;21.118;2023-02-23T09:33:28;100676.33;;;5.97;56.30
33795;BME280;51430;52.242;21.118;2023-02-23T09:36:31;100683.66;;;6.67;54.90
33795;BME280;51430;52.242;21.118;2023-02-23T09:39:17;100675.71;;;7.21;53.40
33795;BME280;51430;52.242;21.118;2023-02-23T09:45:25;100674.78;;;7.88;51.09
33795;BME280;51430;52.242;21.118;2023-02-23T09:51:01;100663.77;;;8.54;49.87
33795;BME280;51430;52.242;21.118;2023-02-23T09:53:52;100669.63;;;8.47;50.02
33795;BME280;51430;52.242;21.118;2023-02-23T09:56:39;100665.38;;;8.31;50.03
33795;BME280;51430;52.242;21.118;2023-02-23T09:59:25;100663.11;;;7.91;50.93
33795;BME280;51430;52.242;21.118;2023-02-23T10:05:01;100662.05;;;7.09;53.16
33795;BME280;51430;52.242;21.118;2023-02-23T10:07:55;100657.20;;;7.33;52.83
33795;BME280;51430;52.242;21.118;2023-02-23T10:10:47;100657.93;;;7.32;52.83
33795;BME280;51430;52.242;21.118;2023-02-23T10:22:26;100648.03;;;7.68;52.50
33795;BME280;51430;52.242;21.118;2023-02-23T10:25:23;100642.16;;;8.05;51.14
33795;BME280;51430;52.242;21.118;2023-02-23T10:28:18;100640.20;;;8.32;50.55
33795;BME280;51430;52.242;21.118;2023-02-23T10:31:23;100631.95;;;8.81;49.79
33795;BME280;51430;52.242;21.118;2023-02-23T10:34:14;100625.48;;;9.40;48.38
33795;BME280;51430;52.242;21.118;2023-02-23T10:37:03;100628.02;;;9.26;47.94
33795;BME280;51430;52.242;21.118;2023-02-23T10:39:50;100620.08;;;8.77;49.38
33795;BME280;51430;52.242;21.118;2023-02-23T10:42:36;100615.30;;;9.36;48.05
33795;BME280;51430;52.242;21.118;2023-02-23T10:45:24;100607.63;;;9.70;47.50
33795;BME280;51430;52.242;21.118;2023-02-23T10:48:26;100603.05;;;9.93;46.71
33795;BME280;51430;52.242;21.118;2023-02-23T10:51:27;100597.70;;;10.15;46.60
33795;BME280;51430;52.242;21.118;2023-02-23T10:54:37;100594.48;;;10.21;46.35
33795;BME280;51430;52.242;21.118;2023-02-23T10:57:28;100585.38;;;11.30;45.09
33795;BME280;51430;52.242;21.118;2023-02-23T11:03:01;100579.73;;;10.92;44.57
33795;BME280;51430;52.242;21.118;2023-02-23T11:05:49;100574.62;;;11.36;43.70
33795;BME280;51430;52.242;21.118;2023-02-23T11:08:37;100576.54;;;12.00;42.73
33795;BME280;51430;52.242;21.118;2023-02-23T11:11:25;100569.92;;;12.28;41.76
33795;BME280;51430;52.242;21.118;2023-02-23T11:14:15;100565.63;;;11.92;42.44
33795;BME280;51430;52.242;21.118;2023-02-23T11:17:01;100558.51;;;12.12;41.88
33795;BME280;51430;52.242;21.118;2023-02-23T11:19:46;100557.39;;;11.74;42.73
33795;BME280;51430;52.242;21.118;2023-02-23T11:22:36;100554.46;;;11.96;41.91
33795;BME280;51430;52.242;21.118;2023-02-23T11:25:27;100548.70;;;11.31;43.08
33795;BME280;51430;52.242;21.118;2023-02-23T11:28:19;100541.23;;;10.75;44.62
33795;BME280;51430;52.242;21.118;2023-02-23T11:31:15;100538.33;;;10.95;44.52
33795;BME280;51430;52.242;21.118;2023-02-23T11:34:03;100528.09;;;10.92;44.41
33795;BME280;51430;52.242;21.118;2023-02-23T11:37:05;100526.48;;;11.08;44.39
33795;BME280;51430;52.242;21.118;2023-02-23T11:42:36;100517.38;;;9.81;47.03
33795;BME280;51430;52.242;21.118;2023-02-23T11:45:25;100515.99;;;9.38;48.03
33795;BME280;51430;52.242;21.118;2023-02-23T11:48:21;100513.48;;;8.57;49.84
33795;BME280;51430;52.242;21.118;2023-02-23T11:51:25;100501.79;;;8.71;50.05
33795;BME280;51430;52.242;21.118;2023-02-23T11:54:38;100499.52;;;8.87;49.55
33795;BME280;51430;52.242;21.118;2023-02-23T11:57:33;100496.63;;;8.52;50.50
33795;BME280;51430;52.242;21.118;2023-02-23T12:00:25;100491.99;;;8.48;50.45
33795;BME280;51430;52.242;21.118;2023-02-23T12:03:20;100482.17;;;8.73;50.08
33795;BME280;51430;52.242;21.118;2023-02-23T12:06:06;100478.02;;;9.08;49.36
33795;BME280;51430;52.242;21.118;2023-02-23T12:08:52;100474.58;;;9.46;48.43
33795;BME280;51430;52.242;21.118;2023-02-23T12:11:46;100472.08;;;9.14;49.15
33795;BME280;51430;52.242;21.118;2023-02-23T12:14:40;100468.46;;;9.04;49.44
33795;BME280;51430;52.242;21.118;2023-02-23T12:17:34;100456.70;;;8.67;50.63
33795;BME280;51430;52.242;21.118;2023-02-23T12:20:29;100461.66;;;8.42;50.84
33795;BME280;51430;52.242;21.118;2023-02-23T12:23:27;100449.35;;;8.20;51.46
33795;BME280;51430;52.242;21.118;2023-02-23T12:26:17;100448.80;;;8.52;51.01
33795;BME280;51430;52.242;21.118;2023-02-23T12:29:24;100446.77;;;8.78;50.37
33795;BME280;51430;52.242;21.118;2023-02-23T12:32:18;100442.05;;;8.50;50.96
33795;BME280;51430;52.242;21.118;2023-02-23T12:40:46;100432.88;;;8.38;51.48
33795;BME280;51430;52.242;21.118;2023-02-23T12:43:39;100422.64;;;8.22;51.78
33795;BME280;51430;52.242;21.118;2023-02-23T12:46:30;100418.61;;;8.20;52.21
33795;BME280;51430;52.242;21.118;2023-02-23T12:52:29;100410.45;;;8.07;52.44
33795;BME280;51430;52.242;21.118;2023-02-23T12:55:19;100409.73;;;8.12;52.45
33795;BME280;51430;52.242;21.118;2023-02-23T12:58:28;100406.03;;;7.94;52.74
33795;BME280;51430;52.242;21.118;2023-02-23T13:01:52;100400.70;;;7.96;52.80
33795;BME280;51430;52.242;21.118;2023-02-23T13:08:03;100391.24;;;8.35;52.44
33795;BME280;51430;52.242;21.118;2023-02-23T13:11:05;100386.84;;;8.01;53.14
33795;BME280;51430;52.242;21.118;2023-02-23T13:32:23;100359.33;;;7.49;54.35
33795;BME280;51430;52.242;21.118;2023-02-23T13:35:17;100356.64;;;7.39;54.69
33795;BME280;51430;52.242;21.118;2023-02-23T13:38:33;100354.09;;;7.41;55.04
33795;BME280;51430;52.242;21.118;2023-02-23T13:45:44;100340.80;;;7.43;54.86
33795;BME280;51430;52.242;21.118;2023-02-23T13:48:50;100337.09;;;7.49;55.01
33795;BME280;51430;52.242;21.118;2023-02-23T13:51:48;100329.31;;;7.60;54.68
33795;BME280;51430;52.242;21.118;2023-02-23T13:54:36;100325.61;;;7.63;54.72
33795;BME280;51430;52.242;21.118;2023-02-23T13:57:23;100325.58;;;7.82;53.93
33795;BME280;51430;52.242;21.118;2023-02-23T14:00:29;100321.52;;;7.97;53.69
33795;BME280;51430;52.242;21.118;2023-02-23T14:03:27;100321.37;;;8.15;52.99
33795;BME280;51430;52.242;21.118;2023-02-23T14:06:16;100318.54;;;8.02;53.46
33795;BME280;51430;52.242;21.118;2023-02-23T14:09:08;100310.34;;;7.87;53.59
33795;BME280;51430;52.242;21.118;2023-02-23T14:16:23;100301.33;;;8.21;53.25
33795;BME280;51430;52.242;21.118;2023-02-23T14:19:35;100300.59;;;8.04;53.19
33795;BME280;51430;52.242;21.118;2023-02-23T14:22:21;100293.48;;;7.77;54.00
33795;BME280;51430;52.242;21.118;2023-02-23T14:28:33;100291.91;;;7.93;54.18
33795;BME280;51430;52.242;21.118;2023-02-23T14:31:21;100289.36;;;8.08;53.65
33795;BME280;51430;52.242;21.118;2023-02-23T14:34:11;100285.02;;;7.97;54.09
33795;BME280;51430;52.242;21.118;2023-02-23T14:37:11;100280.05;;;8.15;53.83
33795;BME280;51430;52.242;21.118;2023-02-23T14:42:52;100275.63;;;8.13;53.66
33795;BME280;51430;52.242;21.118;2023-02-23T14:45:41;100265.73;;;7.98;54.38
33795;BME280;51430;52.242;21.118;2023-02-23T14:48:26;100268.73;;;7.84;54.91
33795;BME280;51430;52.242;21.118;2023-02-23T14:51:22;100261.43;;;7.68;55.37
33795;BME280;51430;52.242;21.118;2023-02-23T14:57:02;100259.50;;;7.15;57.06
33795;BME280;51430;52.242;21.118;2023-02-23T14:59:57;100260.09;;;7.22;57.42
33795;BME280;51430;52.242;21.118;2023-02-23T15:02:58;100258.02;;;7.33;57.16
33795;BME280;51430;52.242;21.118;2023-02-23T15:05:49;100257.69;;;7.54;56.79
33795;BME280;51430;52.242;21.118;2023-02-23T15:08:39;100256.59;;;7.34;57.33
33795;BME280;51430;52.242;21.118;2023-02-23T15:11:28;100254.05;;;7.22;57.77
33795;BME280;51430;52.242;21.118;2023-02-23T15:14:16;100249.48;;;7.10;58.00
33795;BME280;51430;52.242;21.118;2023-02-23T15:17:18;100248.05;;;6.94;58.72
33795;BME280;51430;52.242;21.118;2023-02-23T15:20:09;100245.88;;;6.93;58.97
33795;BME280;51430;52.242;21.118;2023-02-23T15:23:03;100238.06;;;6.74;59.48
33795;BME280;51430;52.242;21.118;2023-02-23T15:25:49;100232.42;;;6.53;60.09
33795;BME280;51430;52.242;21.118;2023-02-23T15:28:39;100227.48;;;6.52;60.32
33795;BME280;51430;52.242;21.118;2023-02-23T15:31:28;100224.12;;;6.39;60.77
33795;BME280;51430;52.242;21.118;2023-02-23T15:34:15;100216.70;;;6.44;60.93
33795;BME280;51430;52.242;21.118;2023-02-23T15:37:06;100206.70;;;6.35;61.38
33795;BME280;51430;52.242;21.118;2023-02-23T15:40:04;100208.74;;;6.27;61.68
33795;BME280;51430;52.242;21.118;2023-02-23T15:42:52;100202.66;;;6.25;61.95
33795;BME280;51430;52.242;21.118;2023-02-23T15:45:45;100198.52;;;6.16;62.26
33795;BME280;51430;52.242;21.118;2023-02-23T15:48:53;100191.29;;;6.21;62.23
33795;BME280;51430;52.242;21.118;2023-02-23T15:51:42;100190.53;;;6.14;62.44
33795;BME280;51430;52.242;21.118;2023-02-23T15:55:00;100190.36;;;5.96;63.09
33795;BME280;51430;52.242;21.118;2023-02-23T15:57:52;100193.36;;;5.86;63.66
33795;BME280;51430;52.242;21.118;2023-02-23T16:00:43;100194.70;;;5.75;64.02
33795;BME280;51430;52.242;21.118;2023-02-23T16:03:37;100189.83;;;5.82;63.88
33795;BME280;51430;52.242;21.118;2023-02-23T16:06:37;100187.84;;;5.66;64.55
33795;BME280;51430;52.242;21.118;2023-02-23T16:09:26;100184.55;;;5.63;64.76
33795;BME280;51430;52.242;21.118;2023-02-23T16:12:15;100180.42;;;5.59;64.90
33795;BME280;51430;52.242;21.118;2023-02-23T16:15:05;100183.09;;;5.52;65.27
33795;BME280;51430;52.242;21.118;2023-02-23T16:17:55;100176.83;;;5.53;65.23
33795;BME280;51430;52.242;21.118;2023-02-23T16:24:52;100172.06;;;5.25;66.23
33795;BME280;51430;52.242;21.118;2023-02-23T16:27:41;100175.53;;;5.19;66.60
33795;BME280;51430;52.242;21.118;2023-02-23T16:33:22;100168.39;;;5.11;66.88
33795;BME280;51430;52.242;21.118;2023-02-23T16:39:01;100173.93;;;4.95;67.64
33795;BME280;51430;52.242;21.118;2023-02-23T16:41:48;100171.38;;;4.92;67.78
33795;BME280;51430;52.242;21.118;2023-02-23T16:44:37;100172.62;;;4.97;67.69
33795;BME280;51430;52.242;21.118;2023-02-23T16:47:33;100168.80;;;4.91;67.80
33795;BME280;51430;52.242;21.118;2023-02-23T16:50:24;100162.69;;;4.93;67.88
33795;BME280;51430;52.242;21.118;2023-02-23T16:53:11;100162.41;;;4.88;68.13
33795;BME280;51430;52.242;21.118;2023-02-23T16:56:04;100158.99;;;4.87;68.15